Archival Weather

Half Moon Bay

Half Moon Bay, California (KHAF)

Report from: Wednesday, December 6, 2023 12:35 AM PST
Current time: Saturday, February 24, 2024 6:56 AM PST

Current weather – Weather history – Daily summaries
Weather forecast

Present weatherMist
Temperature9.0°C (48.2°F)
Dew point9.0°C (48.2°F)
Winds Calm
Visibility5 mi. (8 km)
Clouds Ceiling: Overcast 300 ft. (91 m)
Altimeter30.09 in.Hg (1019 mB)
Relative humidity100 %
Density altitude-750 ft. (-229 m)
Remarks Fully automated report
Automated weather observing station with precipitation discriminator
Flight conditions Low Instrument Meteorological Conditions
Raw dataKHAF 060835Z AUTO 00000KT 5SM BR OVC003 09/09 A3009 RMK AO2
An error has occurred. This application may no longer respond until reloaded. Reload 🗙